FAMM/MBD METAR and TAF weather

Enter ICAO airport designator
Station Type Date Time Source
FAMM METAR 2020/01/22 18:00 UTC NOAA

FAMM 221800Z 05003KT 9999 FEW030CB SCT100 22/16 Q1014 NOSIG


Station Type Date Time Source
FAMM Decoded METAR 2020/01/22 18:00 UTC NOAA

Mafikeng Intl. Ad, South Africa (FAMM) 25-47S 025-32E 1300M
Jan 22, 2020 - 01:00 PM EST / 2020.01.22 1800 UTC
Wind: from the NE (050 degrees) at 3 MPH (3 KT):0
Visibility: greater than 7 mile(s):0
Sky conditions: partly cloudy
Weather: Cumulonimbus clouds observed
Temperature: 71 F (22 C)
Dew Point: 60 F (16 C)
Relative Humidity: 68%
Pressure (altimeter): 29.94 in. Hg (1014 hPa)
ob: FAMM 221800Z 05003KT 9999 FEW030CB SCT100 22/16 Q1014 NOSIG
cycle: 18

Station Type Date Time Source
FAMM TAF 2019/01/01 10:00 UTC NOAA

TAF FAMM 010900Z 0110/0118 04008KT 9999 BKN015
BECMG 0111/0113 34010KT BKN025 TX25/0113Z TN22/0118Z

Example: see airport list